Lecompton, Kansas
Current Conditions -  °F | °C
As of 5:52 AM on Thursday 27 Nov 2014 (Local Time) from KLWC Reporting Station
Haze Haze  
Wind Chill: 13°   Ceiling: 1400
Heat Index: 24°   Visibility: 4mi
Dew Point: 19°   Wind: 12mph
Humidity: 81%   Direction: 10°N
Pressure: 30.49"   Gusts: NA
Location:  39.04°N, 95.39°W
Report Text: KLWC 271152Z AUTO 01010KT 4SM HZ OVC014 M04/M07 A3049 RMK AO2 SLP334 T10441072 11022 21067 58000
Loading
Personal Weather Stations






























Interactive Weather Map New forecast layout! Learn more

10-Day Weather Forecast

Advertisements
Track Severe Weather on mobile